Terminal Aerodrome Forecast
Issued by NWS

Home | Current Version | Previous Version | Text Only | Print | Product List | Glossary On
Versions: 1 2 3 4 5 6 7 8 9 10 11 12 13 14 15 16 17 18 19
000
FTUS43 KMQT 270530
TAFIWD
TAF
KIWD 270530Z 2706/2806 26006KT 1/2SM -SHRA FG OVC003
     FM271400 26009KT P6SM SCT060
     FM272000 28010KT P6SM VCSH BKN060
     FM280100 VRB03KT P6SM SCT070
      AMD LTD TO CLD VIS AND WIND=

USA.gov is the U.S. government's official web portal to all federal, state and local government web resources and services.